Time;durP1;ratioP1;P1;durP2;ratioP2;P2;SDS_P1;SDS_P2;PMS_P1;PMS_P2;Temp;Humidity;BMP_temperature;BMP_pressure;BME280_temperature;BME280_humidity;BME280_pressure;Samples;Min_cycle;Max_cycle;Signal;HPM_P1;HPM_P2
2021/01/30 00:00:37;;;;;;;9.65;4.70;;;;;;;4.36;87.61;97273.83;1724772;82;21188;-89
2021/01/30 00:03:07;;;;;;;8.65;4.30;;;;;;;4.34;87.37;97272.20;1718909;82;21200;-87
2021/01/30 00:05:36;;;;;;;10.60;4.58;;;;;;;4.26;88.03;97274.13;1727327;82;21157;-92
2021/01/30 00:08:07;;;;;;;10.15;3.70;;;;;;;4.26;87.82;97273.70;1720393;82;21660;-86
2021/01/30 00:10:35;;;;;;;9.48;4.65;;;;;;;4.24;87.84;97265.20;1720365;82;21192;-88
2021/01/30 00:13:05;;;;;;;7.10;3.37;;;;;;;4.20;88.26;97262.31;1737172;81;21166;-86
2021/01/30 00:15:33;;;;;;;9.93;4.03;;;;;;;4.21;88.25;97262.70;1724891;82;21192;-89
2021/01/30 00:18:01;;;;;;;10.50;5.15;;;;;;;4.28;87.72;97265.95;1720265;82;21204;-88
2021/01/30 00:20:34;;;;;;;12.15;5.85;;;;;;;4.24;87.74;97265.61;1721712;82;21204;-86
2021/01/30 00:23:05;;;;;;;11.63;5.45;;;;;;;4.26;87.44;97263.41;1719974;82;21165;-90
2021/01/30 00:25:35;;;;;;;12.35;5.65;;;;;;;4.25;87.27;97269.89;1719115;82;21242;-86
2021/01/30 00:28:06;;;;;;;12.60;6.35;;;;;;;4.18;87.61;97275.20;1729697;81;21152;-86
2021/01/30 00:30:34;;;;;;;13.95;6.50;;;;;;;4.17;87.44;97279.94;1726507;81;21183;-87
2021/01/30 00:33:04;;;;;;;15.63;6.75;;;;;;;4.07;87.71;97295.23;1727710;81;21464;-92
2021/01/30 00:35:34;;;;;;;15.25;6.97;;;;;;;3.98;87.93;97297.63;1734637;81;21202;-87
2021/01/30 00:38:05;;;;;;;17.17;7.62;;;;;;;3.85;88.83;97299.28;1729076;81;21144;-88
2021/01/30 00:40:33;;;;;;;15.32;7.72;;;;;;;3.87;88.27;97290.64;1730285;82;21147;-89
2021/01/30 00:43:04;;;;;;;17.82;7.08;;;;;;;3.77;89.13;97300.32;1732403;82;21214;-86
2021/01/30 00:45:32;;;;;;;16.05;6.87;;;;;;;3.71;89.67;97299.20;1732297;81;21182;-88
2021/01/30 00:48:06;;;;;;;16.35;6.78;;;;;;;3.74;89.55;97293.13;1768511;80;21677;-86
2021/01/30 00:50:34;;;;;;;13.93;6.53;;;;;;;3.76;89.17;97298.66;1767958;80;21159;-85
2021/01/30 00:53:05;;;;;;;15.80;6.83;;;;;;;3.77;89.17;97292.61;1770836;80;21202;-89
2021/01/30 00:55:35;;;;;;;18.20;7.95;;;;;;;3.74;89.31;97292.71;1770888;80;21147;-87
2021/01/30 00:58:04;;;;;;;15.13;7.72;;;;;;;3.65;90.09;97295.52;1764360;80;21733;-92
2021/01/30 01:00:34;;;;;;;17.40;7.97;;;;;;;3.75;88.94;97303.83;1769636;80;21198;-87
2021/01/30 01:03:05;;;;;;;18.95;8.25;;;;;;;3.71;89.18;97296.63;1770413;80;21166;-87
2021/01/30 01:05:44;;;;;;;17.52;7.53;;;;;;;3.73;89.37;97286.32;1811292;78;23164;-88
2021/01/30 01:08:11;;;;;;;15.88;6.55;;;;;;;3.70;88.95;97297.53;1732892;82;21161;-87
2021/01/30 01:10:39;;;;;;;13.03;6.62;;;;;;;3.74;88.02;97302.13;1817439;78;21179;-87
2021/01/30 01:13:06;;;;;;;15.23;6.95;;;;;;;3.65;88.41;97292.95;1815063;78;21181;-89
2021/01/30 01:15:33;;;;;;;12.73;6.42;;;;;;;3.73;88.68;97294.86;1818775;78;21276;-84
2021/01/30 01:18:02;;;;;;;16.62;6.65;;;;;;;3.75;88.70;97295.66;1815790;78;21289;-88
2021/01/30 01:20:30;;;;;;;14.43;6.78;;;;;;;3.76;88.36;97296.08;1821124;78;21953;-89
2021/01/30 01:22:59;;;;;;;13.95;6.40;;;;;;;3.75;88.46;97290.98;1814304;78;21138;-89
2021/01/30 01:25:27;;;;;;;12.73;6.12;;;;;;;3.79;88.28;97299.84;1815455;78;21124;-87
2021/01/30 01:27:54;;;;;;;16.17;6.90;;;;;;;3.82;88.13;97304.50;1806209;78;21163;-89
2021/01/30 01:30:23;;;;;;;22.82;9.38;;;;;;;3.83;88.56;97310.05;1819007;78;21157;-91
2021/01/30 01:32:53;;;;;;;26.17;11.28;;;;;;;3.88;88.12;97292.76;1815440;78;21172;-86
2021/01/30 01:35:29;;;;;;;21.25;10.82;;;;;;;3.89;88.16;97297.03;1818618;78;21143;-88
2021/01/30 01:37:59;;;;;;;22.73;9.30;;;;;;;3.91;88.09;97296.09;1819345;78;21161;-84
2021/01/30 01:40:35;;;;;;;19.15;9.58;;;;;;;3.91;87.97;97283.69;1814772;78;21161;-86
2021/01/30 01:43:16;;;;;;;12.90;7.00;;;;;;;3.91;87.80;97282.41;1814375;78;21159;-88
2021/01/30 01:46:01;;;;;;;17.90;8.05;;;;;;;3.90;87.77;97285.84;1817948;78;21166;-89
2021/01/30 01:48:32;;;;;;;23.60;12.28;;;;;;;3.82;88.55;97288.66;1798747;79;21145;-90
2021/01/30 01:51:04;;;;;;;11.48;6.30;;;;;;;3.83;87.85;97286.92;1809368;79;21172;-92
2021/01/30 01:53:36;;;;;;;16.55;7.00;;;;;;;3.76;88.33;97286.22;1817193;78;21735;-90
2021/01/30 01:56:17;;;;;;;17.00;6.87;;;;;;;3.73;88.15;97282.47;1813531;78;21136;-89
2021/01/30 01:58:49;;;;;;;10.63;5.50;;;;;;;3.63;89.84;97283.59;1733100;82;21189;-91
2021/01/30 02:01:18;;;;;;;12.80;5.97;;;;;;;3.76;90.50;97284.52;1777707;80;21173;-88
2021/01/30 02:03:51;;;;;;;13.30;6.55;;;;;;;3.89;90.34;97294.02;1774842;80;21249;-91
2021/01/30 02:06:23;;;;;;;17.35;7.80;;;;;;;3.97;89.20;97292.52;1704288;83;21803;-87
2021/01/30 02:08:52;;;;;;;20.02;7.67;;;;;;;3.98;88.62;97296.34;1815735;78;21646;-93
2021/01/30 02:11:20;;;;;;;14.90;8.00;;;;;;;4.00;88.35;97291.16;1817480;78;21141;-89
2021/01/30 02:13:52;;;;;;;18.23;8.03;;;;;;;4.02;88.17;97289.39;1817800;78;21176;-88
2021/01/30 02:16:46;;;;;;;14.78;7.37;;;;;;;4.03;87.91;97292.80;1816358;78;21171;-91
2021/01/30 02:19:42;;;;;;;13.88;6.97;;;;;;;3.98;87.97;97287.80;1734574;82;21146;-90
2021/01/30 02:22:47;;;;;;;18.90;7.92;;;;;;;3.99;87.82;97289.47;1779663;80;21649;-89
2021/01/30 02:25:42;;;;;;;;;;;;;;;3.99;88.43;97289.47;1777683;80;21189;-88
2021/01/30 02:28:41;;;;;;;16.15;6.92;;;;;;;4.03;88.19;97282.52;1768075;80;20192;-88
2021/01/30 02:31:27;;;;;;;13.53;6.25;;;;;;;4.08;88.15;97289.22;1731233;82;21181;-87
2021/01/30 02:34:16;;;;;;;11.03;6.05;;;;;;;4.06;88.25;97289.70;1816140;78;21169;-88
2021/01/30 02:36:54;;;;;;;12.03;5.53;;;;;;;4.12;87.62;97284.84;1815293;78;21171;-90
2021/01/30 02:39:30;;;;;;;12.88;5.62;;;;;;;4.12;87.48;97284.84;1815747;78;21144;-91
2021/01/30 02:42:03;;;;;;;11.95;6.37;;;;;;;4.10;88.03;97283.59;1736026;82;21178;-91
2021/01/30 02:44:36;;;;;;;9.75;5.72;;;;;;;4.12;87.53;97287.41;1759656;81;21617;-86
2021/01/30 02:47:09;;;;;;;11.77;6.13;;;;;;;4.10;87.88;97280.16;1802333;79;21169;-91
2021/01/30 02:49:42;;;;;;;13.50;6.33;;;;;;;4.08;88.17;97296.94;1804389;79;21591;-89
2021/01/30 02:52:18;;;;;;;13.78;6.75;;;;;;;4.08;87.58;97287.94;1803934;79;21133;-91
2021/01/30 02:54:48;;;;;;;10.88;6.00;;;;;;;4.08;87.81;97285.78;1803563;79;21609;-88
2021/01/30 02:57:17;;;;;;;14.13;6.42;;;;;;;4.07;88.00;97295.69;1820019;78;21149;-91
2021/01/30 02:59:50;;;;;;;15.18;6.40;;;;;;;4.08;87.47;97293.08;1740484;82;22477;-91
2021/01/30 03:02:25;;;;;;;12.03;6.17;;;;;;;4.09;87.97;97302.46;1733440;81;21195;-92
2021/01/30 03:04:57;;;;;;;12.90;5.72;;;;;;;4.11;88.35;97304.55;1772863;80;21172;-90
2021/01/30 03:07:53;;;;;;;13.15;5.58;;;;;;;4.12;88.21;97296.41;1762474;80;21188;-89
2021/01/30 03:10:41;;;;;;;14.63;6.22;;;;;;;4.14;88.20;97295.48;1773741;80;21526;-90
2021/01/30 03:13:23;;;;;;;13.53;7.03;;;;;;;4.15;88.14;97289.88;1769865;80;21173;-92
2021/01/30 03:16:09;;;;;;;11.95;5.92;;;;;;;4.14;88.38;97284.35;1692503;82;21189;-89
2021/01/30 03:18:48;;;;;;;9.45;5.28;;;;;;;4.13;88.71;97274.48;1769331;80;21760;-87
2021/01/30 03:21:17;;;;;;;8.15;3.47;;;;;;;4.17;89.12;97277.37;1777144;80;21176;-90
2021/01/30 03:23:45;;;;;;;9.73;4.80;;;;;;;4.37;89.22;97278.08;1772376;80;21229;-88
2021/01/30 03:26:21;;;;;;;14.15;6.05;;;;;;;4.49;88.55;97278.61;1775730;80;21181;-88
2021/01/30 03:28:50;;;;;;;11.78;5.62;;;;;;;4.39;88.00;97281.45;1732566;82;21183;-90
2021/01/30 03:31:18;;;;;;;11.20;5.42;;;;;;;4.42;87.95;97275.81;1738633;81;21630;-90
2021/01/30 03:33:46;;;;;;;14.68;6.53;;;;;;;4.33;88.48;97272.63;1767437;80;21177;-88
2021/01/30 03:36:15;;;;;;;12.35;6.12;;;;;;;4.33;88.80;97276.94;1773329;80;21196;-88
2021/01/30 03:38:43;;;;;;;13.43;6.65;;;;;;;4.34;88.59;97274.32;1772549;80;21181;-89
2021/01/30 03:41:10;;;;;;;14.53;7.47;;;;;;;4.37;88.07;97270.81;1775433;80;21185;-88
2021/01/30 03:43:38;;;;;;;17.85;7.90;;;;;;;4.39;87.71;97266.46;1772136;80;21176;-87
2021/01/30 03:46:06;;;;;;;15.53;8.25;;;;;;;4.30;88.37;97265.47;1732422;82;21225;-87
2021/01/30 03:48:34;;;;;;;16.75;8.05;;;;;;;4.26;88.26;97253.12;1818499;78;21918;-91
2021/01/30 03:51:02;;;;;;;19.10;8.35;;;;;;;4.31;88.43;97261.98;1818886;78;21310;-89
2021/01/30 03:53:29;;;;;;;18.92;7.50;;;;;;;4.27;88.37;97269.39;1733070;82;21146;-89
2021/01/30 03:55:59;;;;;;;15.53;7.35;;;;;;;4.27;88.13;97280.97;1725622;82;21195;-87
2021/01/30 03:58:27;;;;;;;16.70;8.28;;;;;;;4.24;88.25;97292.63;1773396;80;21192;-90
2021/01/30 04:00:55;;;;;;;19.48;9.43;;;;;;;4.24;88.17;97283.62;1779223;80;21201;-89
2021/01/30 04:03:23;;;;;;;17.98;9.70;;;;;;;4.14;89.05;97298.50;1773447;80;21157;-86
2021/01/30 04:05:51;;;;;;;15.38;7.72;;;;;;;4.21;88.40;97296.13;1739009;80;21172;-84
2021/01/30 04:08:19;;;;;;;19.27;9.15;;;;;;;4.12;89.24;97292.55;1729830;82;22021;-86
2021/01/30 04:10:47;;;;;;;19.05;8.08;;;;;;;4.10;89.18;97290.44;1722874;81;21243;-85
2021/01/30 04:13:14;;;;;;;18.67;8.73;;;;;;;4.04;89.36;97282.48;1725099;82;21199;-91
2021/01/30 04:15:44;;;;;;;15.25;7.45;;;;;;;4.02;89.39;97280.81;1734822;82;21799;-87
2021/01/30 04:18:13;;;;;;;18.87;8.53;;;;;;;4.00;89.29;97274.45;1725495;82;21636;-88
2021/01/30 04:20:41;;;;;;;18.42;8.55;;;;;;;4.01;89.22;97272.27;1728485;82;21192;-87
2021/01/30 04:23:11;;;;;;;14.78;7.33;;;;;;;4.08;88.68;97268.64;1725414;82;21203;-83
2021/01/30 04:25:38;;;;;;;15.80;8.00;;;;;;;4.12;88.73;97273.27;1727360;82;21180;-85
2021/01/30 04:28:07;;;;;;;16.00;7.35;;;;;;;4.11;89.16;97276.70;1730213;81;21176;-89
2021/01/30 04:30:35;;;;;;;16.62;7.37;;;;;;;4.09;89.11;97282.34;1733840;81;21212;-83
2021/01/30 04:33:05;;;;;;;15.75;6.95;;;;;;;4.15;88.66;97277.02;1726841;82;21220;-87
2021/01/30 04:35:36;;;;;;;19.35;7.47;;;;;;;4.11;88.80;97274.14;1726920;82;22039;-90
2021/01/30 04:38:05;;;;;;;15.15;7.25;;;;;;;4.10;88.48;97271.15;1725020;82;22152;-92
2021/01/30 04:40:41;;;;;;;14.85;6.80;;;;;;;4.12;88.22;97275.84;1724759;81;21204;-89
2021/01/30 04:43:35;;;;;;;22.82;7.85;;;;;;;4.09;88.20;97275.91;1724456;81;21188;-90
2021/01/30 04:46:50;;;;;;;16.23;7.45;;;;;;;4.12;88.13;97283.55;1733961;82;21168;-90
2021/01/30 04:49:23;;;;;;;15.83;7.47;;;;;;;4.05;88.49;97288.00;1732848;81;21743;-90
2021/01/30 04:52:23;;;;;;;15.30;7.33;;;;;;;4.03;88.82;97300.52;1729415;82;21188;-93
2021/01/30 04:55:13;;;;;;;14.47;7.62;;;;;;;4.05;88.71;97293.59;1727998;82;21228;-90
2021/01/30 04:58:30;;;;;;;15.40;7.80;;;;;;;3.99;88.79;97296.73;1726630;81;21200;-89
2021/01/30 05:01:33;;;;;;;15.85;7.42;;;;;;;4.04;87.66;97297.91;1725363;82;21203;-87
2021/01/30 05:04:15;;;;;;;13.58;7.03;;;;;;;3.92;88.59;97300.79;1727402;81;21649;-86
2021/01/30 05:07:05;;;;;;;15.38;7.33;;;;;;;3.88;88.75;97292.76;1760008;81;21180;-88
2021/01/30 05:09:56;;;;;;;13.35;7.05;;;;;;;3.91;88.46;97299.12;1740585;82;21659;-84
2021/01/30 05:12:53;;;;;;;16.07;6.92;;;;;;;3.87;88.95;97292.38;1737428;82;21204;-88
2021/01/30 05:15:35;;;;;;;18.15;7.70;;;;;;;3.89;88.71;97304.30;1768257;81;22219;-88
2021/01/30 05:18:20;;;;;;;13.18;7.28;;;;;;;3.93;88.64;97312.77;1765691;81;21171;-88
2021/01/30 05:21:05;;;;;;;14.55;6.97;;;;;;;3.85;89.70;97304.43;1755350;81;21186;-86
2021/01/30 05:23:34;;;;;;;14.07;7.47;;;;;;;3.93;88.99;97309.75;1732010;80;21173;-85
2021/01/30 05:26:29;;;;;;;14.33;6.87;;;;;;;3.89;89.54;97323.58;1767680;81;21168;-87
2021/01/30 05:29:23;;;;;;;20.45;8.05;;;;;;;3.99;88.98;97317.30;1882940;76;22903;-90
2021/01/30 05:32:25;;;;;;;15.72;7.87;;;;;;;3.92;89.44;97323.92;1850227;77;21167;-85
2021/01/30 05:35:00;;;;;;;16.60;8.28;;;;;;;3.94;89.46;97328.17;1845399;77;22195;-88
2021/01/30 05:37:33;;;;;;;17.02;8.38;;;;;;;3.95;89.64;97336.27;1844717;77;21168;-86
2021/01/30 05:40:12;;;;;;;14.33;7.45;;;;;;;3.98;89.25;97334.91;1851358;77;21124;-84
2021/01/30 05:43:09;;;;;;;14.65;7.53;;;;;;;4.02;89.27;97338.67;1859520;77;21119;-87
2021/01/30 05:45:45;;;;;;;18.77;7.37;;;;;;;4.07;90.10;97327.38;1845703;77;21149;-88
2021/01/30 05:48:28;;;;;;;13.65;6.97;;;;;;;4.15;89.50;97337.46;1848396;77;21161;-91
2021/01/30 05:51:20;;;;;;;14.15;7.53;;;;;;;4.19;89.85;97340.34;1854190;77;21155;-87
2021/01/30 05:53:49;;;;;;;14.50;6.95;;;;;;;4.27;89.91;97345.28;1852128;77;21125;-89
2021/01/30 05:56:17;;;;;;;15.83;7.17;;;;;;;4.31;89.52;97357.17;1846424;77;21648;-87
2021/01/30 05:58:47;;;;;;;13.48;7.53;;;;;;;4.36;88.92;97363.87;1849223;77;21184;-91
2021/01/30 06:01:25;;;;;;;16.40;7.83;;;;;;;4.37;89.41;97362.14;1848355;77;22412;-85
2021/01/30 06:04:04;;;;;;;16.80;8.08;;;;;;;4.39;89.99;97359.08;1853638;77;22232;-87
2021/01/30 06:06:43;;;;;;;15.53;8.10;;;;;;;4.43;89.54;97366.28;1848939;77;21160;-89
2021/01/30 06:09:19;;;;;;;19.40;9.83;;;;;;;4.46;89.73;97359.78;1842349;77;21156;-89
2021/01/30 06:11:55;;;;;;;17.65;9.18;;;;;;;4.56;89.35;97357.33;1803186;78;22909;-90
2021/01/30 06:14:39;;;;;;;17.35;8.90;;;;;;;4.56;89.39;97365.05;1730049;82;21122;-90
2021/01/30 06:17:27;;;;;;;16.00;8.13;;;;;;;4.57;90.14;97370.59;1728478;82;21169;-91
2021/01/30 06:20:10;;;;;;;15.58;7.55;;;;;;;4.62;89.68;97361.02;1743632;81;21150;-90
2021/01/30 06:22:38;;;;;;;17.00;8.25;;;;;;;4.66;89.56;97371.63;1747250;81;21193;-90
2021/01/30 06:25:37;;;;;;;16.82;8.35;;;;;;;4.70;89.52;97369.36;1748410;81;21186;-92
2021/01/30 06:28:25;;;;;;;15.83;6.92;;;;;;;4.79;89.51;97368.23;1875637;76;22744;-91
2021/01/30 06:30:57;;;;;;;14.38;7.92;;;;;;;4.81;89.34;97372.05;1822827;78;21181;-90
2021/01/30 06:33:30;;;;;;;15.48;8.18;;;;;;;4.88;88.95;97374.86;1823696;78;21172;-90
2021/01/30 06:36:21;;;;;;;16.23;8.55;;;;;;;4.81;89.48;97375.91;1822111;78;21610;-89
2021/01/30 06:39:09;;;;;;;16.40;8.60;;;;;;;4.84;89.23;97371.52;1791035;79;21310;-88
2021/01/30 06:41:39;;;;;;;19.07;9.53;;;;;;;4.86;88.99;97376.19;1775890;80;21144;-91
2021/01/30 06:44:28;;;;;;;16.75;8.00;;;;;;;4.88;88.98;97380.01;1797483;80;21212;-86
2021/01/30 06:47:18;;;;;;;23.65;10.05;;;;;;;4.89;88.80;97368.80;1791313;80;21295;-88
2021/01/30 06:49:53;;;;;;;22.95;10.30;;;;;;;4.87;89.09;97368.00;1797355;80;21176;-90
2021/01/30 06:52:31;;;;;;;19.45;9.48;;;;;;;5.02;88.48;97371.87;1793334;80;21299;-86
2021/01/30 06:55:12;;;;;;;18.60;8.75;;;;;;;5.03;88.46;97372.25;1795868;79;21311;-89
2021/01/30 06:57:59;;;;;;;16.80;8.90;;;;;;;5.02;88.75;97368.84;1798150;80;21756;-92
2021/01/30 07:00:31;;;;;;;19.55;9.85;;;;;;;5.11;88.62;97382.73;1797612;80;21171;-91
2021/01/30 07:03:18;;;;;;;18.27;9.03;;;;;;;5.21;88.16;97383.27;1796261;80;21184;-91
2021/01/30 07:06:13;;;;;;;18.00;9.10;;;;;;;5.22;88.22;97378.98;1794021;80;21205;-90
2021/01/30 07:08:55;;;;;;;17.77;9.80;;;;;;;5.29;88.09;97373.59;1791489;80;21122;-88
2021/01/30 07:11:55;;;;;;;22.62;9.20;;;;;;;5.35;87.65;97363.52;1795842;80;22089;-92
2021/01/30 07:14:37;;;;;;;17.57;9.75;;;;;;;5.45;87.50;97376.95;1792643;80;21286;-83
2021/01/30 07:17:45;;;;;;;23.30;10.28;;;;;;;5.51;86.93;97378.91;1789521;80;21193;-87
2021/01/30 07:20:56;;;;;;;23.57;11.10;;;;;;;5.57;86.94;97376.12;1796909;80;21176;-89
2021/01/30 07:24:05;;;;;;;18.45;9.60;;;;;;;5.65;86.31;97356.97;1795469;80;21299;-85
2021/01/30 07:27:08;;;;;;;21.65;10.38;;;;;;;5.59;86.32;97368.35;1787527;80;21634;-85
2021/01/30 07:29:59;;;;;;;19.73;9.23;;;;;;;5.70;86.20;97362.83;1774852;80;21602;-89
2021/01/30 07:32:44;;;;;;;21.70;9.50;;;;;;;5.71;86.09;97373.10;1767238;80;21196;-92
2021/01/30 07:35:29;;;;;;;17.95;10.05;;;;;;;5.84;86.22;97364.95;1774012;80;21191;-84
2021/01/30 07:38:29;;;;;;;23.40;11.08;;;;;;;5.92;86.25;97373.27;1768163;79;21180;-91
2021/01/30 07:41:27;;;;;;;26.70;10.68;;;;;;;5.97;86.00;97377.87;1774371;80;21181;-82
2021/01/30 07:44:06;;;;;;;22.75;9.50;;;;;;;6.11;85.38;97372.23;1779345;80;21133;-87
2021/01/30 07:46:38;;;;;;;20.92;9.93;;;;;;;6.11;85.81;97389.00;1776396;80;21192;-89
2021/01/30 07:49:15;;;;;;;28.70;10.75;;;;;;;6.23;85.33;97395.45;1775145;80;21169;-86
2021/01/30 07:51:59;;;;;;;29.50;18.45;;;;;;;6.23;85.23;97384.70;1776183;80;21169;-87
2021/01/30 07:54:27;;;;;;;21.48;12.00;;;;;;;6.29;85.16;97383.66;1772182;80;21157;-88
2021/01/30 07:57:29;;;;;;;17.85;10.85;;;;;;;6.33;85.14;97383.48;1774171;78;22579;-89
2021/01/30 08:00:09;;;;;;;15.35;9.78;;;;;;;6.37;84.20;97393.25;1784611;79;21180;-88
2021/01/30 08:03:10;;;;;;;20.50;9.83;;;;;;;6.32;83.30;97395.97;1752761;79;21164;-85
2021/01/30 08:06:10;;;;;;;17.90;8.68;;;;;;;6.37;83.76;97403.58;1785505;79;21486;-89
2021/01/30 08:08:52;;;;;;;16.73;8.98;;;;;;;6.38;83.73;97402.20;1784174;79;21204;-87
2021/01/30 08:11:34;;;;;;;16.67;8.68;;;;;;;6.33;83.35;97406.70;1776385;79;21176;-92
2021/01/30 08:14:31;;;;;;;18.55;9.78;;;;;;;6.36;83.30;97417.36;1779590;79;21628;-90
2021/01/30 08:17:23;;;;;;;19.27;10.35;;;;;;;6.37;83.34;97419.06;1782361;79;21314;-94
2021/01/30 08:20:11;;;;;;;20.02;11.85;;;;;;;6.38;82.97;97423.31;1869201;74;28047;-88
2021/01/30 08:22:47;;;;;;;20.52;10.50;;;;;;;6.43;82.34;97433.50;1854206;77;21640;-88
2021/01/30 08:25:32;;;;;;;13.22;8.08;;;;;;;6.49;82.70;97444.90;1846798;76;21621;-91
2021/01/30 08:28:17;;;;;;;17.65;8.23;;;;;;;6.45;82.31;97444.16;1856473;77;21629;-89
2021/01/30 08:30:45;;;;;;;18.70;9.13;;;;;;;6.54;81.93;97443.81;1859757;77;22207;-88
2021/01/30 08:33:16;;;;;;;15.48;8.03;;;;;;;6.52;81.80;97454.64;1850678;77;21315;-91
2021/01/30 08:35:51;;;;;;;16.25;8.75;;;;;;;6.55;81.76;97444.22;1857638;77;21157;-92
2021/01/30 08:38:24;;;;;;;21.20;10.72;;;;;;;6.61;81.32;97453.95;1815981;77;21157;-90
2021/01/30 08:40:56;;;;;;;16.75;9.55;;;;;;;6.68;81.59;97459.28;1853894;77;21110;-86
2021/01/30 08:43:53;;;;;;;17.87;9.93;;;;;;;6.65;81.07;97465.86;1856330;77;21169;-87
2021/01/30 08:46:33;;;;;;;19.30;10.15;;;;;;;6.65;80.48;97460.69;1858622;77;21333;-93
2021/01/30 08:49:22;;;;;;;17.82;9.25;;;;;;;6.61;80.92;97456.53;1856739;77;21270;-88
2021/01/30 08:52:17;;;;;;;21.30;9.98;;;;;;;6.63;81.51;97456.03;1853823;77;21149;-88
2021/01/30 08:54:45;;;;;;;18.98;10.32;;;;;;;6.56;81.62;97471.74;1859623;77;21545;-92
2021/01/30 08:57:37;;;;;;;21.45;10.18;;;;;;;6.40;82.44;97470.56;1825438;78;21129;-89
2021/01/30 09:00:10;;;;;;;19.37;8.95;;;;;;;6.45;82.28;97476.42;1818317;78;21126;-87
2021/01/30 09:02:43;;;;;;;23.38;9.53;;;;;;;6.46;82.32;97483.26;1823810;78;21217;-90
2021/01/30 09:05:22;;;;;;;16.93;8.68;;;;;;;6.42;82.71;97487.30;1819202;78;21145;-88
2021/01/30 09:07:54;;;;;;;19.35;8.43;;;;;;;6.42;82.04;97490.72;1820622;78;21156;-91
2021/01/30 09:10:29;;;;;;;16.12;7.90;;;;;;;6.46;81.72;97487.13;1787808;80;21177;-86
2021/01/30 09:13:17;;;;;;;13.62;8.25;;;;;;;6.47;81.16;97482.38;1790216;78;21745;-87
2021/01/30 09:15:50;;;;;;;14.87;8.38;;;;;;;6.49;80.89;97485.75;1820442;78;21145;-93
2021/01/30 09:18:35;;;;;;;15.32;7.15;;;;;;;6.49;80.76;97493.49;1791317;78;21178;-90
2021/01/30 09:21:45;;;;;;;16.42;7.28;;;;;;;6.48;80.56;97501.28;1832028;78;21653;-89
2021/01/30 09:24:36;;;;;;;15.43;7.85;;;;;;;6.51;80.21;97499.45;1795621;79;21188;-89
2021/01/30 09:27:21;;;;;;;16.93;8.43;;;;;;;6.59;79.77;97507.39;1773614;79;21185;-90
2021/01/30 09:30:01;;;;;;;13.30;7.25;;;;;;;6.72;79.80;97511.21;1870027;75;22967;-88
2021/01/30 09:32:35;;;;;;;14.70;8.18;;;;;;;6.73;79.41;97512.45;1851102;75;21728;-89
2021/01/30 09:35:11;;;;;;;16.35;8.38;;;;;;;6.82;79.11;97513.86;1851919;76;21307;-89
2021/01/30 09:37:46;;;;;;;16.95;8.48;;;;;;;6.84;79.07;97516.40;1856515;76;21153;-90
2021/01/30 09:40:27;;;;;;;13.28;6.60;;;;;;;6.94;78.51;97508.71;1817316;78;21628;-91
2021/01/30 09:43:08;;;;;;;14.10;7.55;;;;;;;7.01;78.22;97511.94;1789394;79;21313;-89
2021/01/30 09:45:37;;;;;;;14.03;7.50;;;;;;;7.06;78.45;97513.89;1815125;78;22588;-91
2021/01/30 09:48:10;;;;;;;15.95;7.70;;;;;;;7.13;78.94;97508.45;1820444;78;21296;-91
2021/01/30 09:50:51;;;;;;;17.67;8.83;;;;;;;7.21;79.75;97493.95;1819991;78;21173;-89
2021/01/30 09:53:38;;;;;;;15.45;8.55;;;;;;;7.27;80.11;97486.42;1818863;78;21172;-91
2021/01/30 09:56:13;;;;;;;16.97;9.58;;;;;;;7.31;79.43;97495.75;1821898;78;22015;-86
2021/01/30 09:58:45;;;;;;;13.05;7.58;;;;;;;7.39;79.12;97504.52;1790302;79;22072;-87
2021/01/30 10:01:41;;;;;;;16.45;6.85;;;;;;;7.34;78.59;97496.48;1820408;78;21141;-89
2021/01/30 10:04:27;;;;;;;13.08;7.08;;;;;;;7.35;78.61;97489.10;1787438;79;21157;-90
2021/01/30 10:07:06;;;;;;;16.60;7.67;;;;;;;7.32;79.54;97482.77;1822098;78;21283;-92
2021/01/30 10:09:47;;;;;;;15.50;7.78;;;;;;;7.38;79.61;97488.14;1790338;80;21737;-90
2021/01/30 10:12:19;;;;;;;20.32;7.53;;;;;;;7.42;79.74;97495.33;1793579;79;21307;-87
2021/01/30 10:14:52;;;;;;;15.13;7.95;;;;;;;7.45;79.31;97493.48;1787926;79;21403;-88
2021/01/30 10:17:37;;;;;;;15.03;8.38;;;;;;;7.51;79.46;97488.06;1787577;79;21194;-89
2021/01/30 10:20:11;;;;;;;14.47;8.60;;;;;;;7.48;79.11;97492.51;1809630;78;21292;-90
2021/01/30 10:22:45;;;;;;;16.70;9.38;;;;;;;7.47;78.70;97481.33;1777243;79;21331;-91
2021/01/30 10:25:22;;;;;;;11.83;6.70;;;;;;;7.40;78.81;97497.13;1808208;79;21285;-93
2021/01/30 10:27:49;;;;;;;13.13;7.10;;;;;;;7.41;78.90;97501.42;1790694;79;22072;-93
2021/01/30 10:30:19;;;;;;;12.45;7.05;;;;;;;7.52;78.92;97497.52;1833719;77;21269;-90
2021/01/30 10:32:56;;;;;;;14.70;6.53;;;;;;;7.56;79.12;97489.20;1831689;77;21288;-92
2021/01/30 10:35:42;;;;;;;14.85;7.20;;;;;;;7.65;78.20;97502.22;1823094;78;21166;-88
2021/01/30 10:38:19;;;;;;;15.40;6.55;;;;;;;7.73;77.61;97503.59;1803122;78;21356;-86
2021/01/30 10:40:58;;;;;;;12.88;7.35;;;;;;;7.86;76.90;97501.39;1830917;77;21129;-87
2021/01/30 10:43:36;;;;;;;10.55;6.12;;;;;;;8.05;76.71;97499.34;1822890;77;21710;-89
2021/01/30 10:46:18;;;;;;;10.48;5.15;;;;;;;8.20;76.78;97496.58;1797314;78;21613;-87
2021/01/30 10:48:47;;;;;;;10.82;4.95;;;;;;;8.30;75.04;97509.09;1826699;78;21125;-90
2021/01/30 10:51:23;;;;;;;8.25;3.90;;;;;;;8.30;73.55;97514.27;1797167;79;21281;-88
2021/01/30 10:54:10;;;;;;;8.63;4.00;;;;;;;8.44;72.16;97512.44;1831983;78;21152;-90
2021/01/30 10:56:38;;;;;;;8.58;3.95;;;;;;;8.45;70.76;97508.09;1829861;78;21176;-87
2021/01/30 10:59:22;;;;;;;13.53;3.62;;;;;;;8.52;71.25;97495.29;1822510;78;21160;-89
2021/01/30 11:01:50;;;;;;;12.05;5.50;;;;;;;8.66;70.85;97496.83;1799855;78;21594;-88
2021/01/30 11:04:27;;;;;;;8.43;4.00;;;;;;;8.71;69.71;97499.21;1798914;79;21191;-90
2021/01/30 11:07:00;;;;;;;8.93;3.60;;;;;;;8.84;70.24;97493.06;1828909;77;21474;-87
2021/01/30 11:09:32;;;;;;;5.90;3.20;;;;;;;8.90;68.90;97488.91;1825103;77;21255;-87
2021/01/30 11:12:14;;;;;;;9.93;3.30;;;;;;;9.04;68.37;97489.59;1827560;77;21300;-91
2021/01/30 11:14:43;;;;;;;8.63;4.12;;;;;;;9.10;67.60;97504.88;1789703;79;21172;-89
2021/01/30 11:17:30;;;;;;;10.13;4.00;;;;;;;9.15;67.27;97506.78;1832982;78;21145;-90
2021/01/30 11:19:59;;;;;;;10.82;4.30;;;;;;;9.19;66.86;97515.27;1807363;78;21326;-93
2021/01/30 11:22:29;;;;;;;9.93;4.03;;;;;;;9.13;67.19;97511.20;1802851;78;21306;-93
2021/01/30 11:25:10;;;;;;;16.75;4.45;;;;;;;9.20;67.23;97516.50;1828627;77;21253;-91
2021/01/30 11:27:46;;;;;;;11.28;5.10;;;;;;;9.28;67.66;97514.88;1829842;78;21291;-93
2021/01/30 11:30:28;;;;;;;13.05;5.40;;;;;;;9.33;67.79;97491.72;1781802;79;21275;-93
2021/01/30 11:33:12;;;;;;;17.35;5.10;;;;;;;9.32;66.49;97499.09;1782895;79;21347;-89
2021/01/30 11:35:43;;;;;;;18.23;6.08;;;;;;;9.33;66.91;97503.81;1815577;79;21295;-92
2021/01/30 11:38:17;;;;;;;15.23;4.35;;;;;;;9.38;67.12;97504.92;1817089;79;21353;-92
2021/01/30 11:40:48;;;;;;;10.60;5.22;;;;;;;9.40;68.29;97488.84;1776906;80;21268;-91
2021/01/30 11:43:16;;;;;;;12.13;5.08;;;;;;;9.22;67.88;97490.52;1805520;79;21308;-89
2021/01/30 11:45:46;;;;;;;17.30;5.33;;;;;;;9.22;68.25;97493.11;1816606;77;21114;-88
2021/01/30 11:48:16;;;;;;;16.70;6.00;;;;;;;9.23;68.61;97493.48;1787486;79;21193;-91
2021/01/30 11:50:43;;;;;;;12.43;5.60;;;;;;;9.33;67.71;97496.03;1775961;79;21767;-91
2021/01/30 11:53:22;;;;;;;13.75;5.60;;;;;;;9.13;68.29;97508.17;1795295;78;21303;-90
2021/01/30 11:55:51;;;;;;;14.98;5.62;;;;;;;9.24;68.17;97499.90;1795802;78;21282;-91
2021/01/30 11:58:20;;;;;;;12.23;4.95;;;;;;;9.48;67.56;97494.51;1813365;79;21165;-91
2021/01/30 12:00:48;;;;;;;11.68;6.05;;;;;;;9.64;68.19;97499.83;1809460;79;21153;-93
2021/01/30 12:03:25;;;;;;;11.83;6.58;;;;;;;9.64;67.91;97495.47;1810786;79;21160;-92
2021/01/30 12:05:55;;;;;;;22.13;8.00;;;;;;;9.60;68.03;97503.02;1780197;79;21126;-91
2021/01/30 12:08:23;;;;;;;10.90;5.37;;;;;;;9.45;68.20;97497.23;1796051;78;21253;-89
2021/01/30 12:10:52;;;;;;;9.90;5.75;;;;;;;9.43;68.00;97496.46;1789771;78;21193;-93
2021/01/30 12:13:21;;;;;;;11.93;6.45;;;;;;;9.35;68.13;97491.19;1793753;79;22231;-92
2021/01/30 12:15:49;;;;;;;12.37;6.08;;;;;;;9.34;67.76;97493.37;1813392;79;21157;-90
2021/01/30 12:18:18;;;;;;;14.75;5.67;;;;;;;9.43;67.85;97488.24;1798573;78;21175;-89
2021/01/30 12:20:49;;;;;;;12.00;5.62;;;;;;;9.21;68.50;97490.98;1791340;79;21225;-88
2021/01/30 12:23:18;;;;;;;11.88;4.80;;;;;;;9.11;68.35;97505.23;1794881;79;21292;-86